Louisville Standiford Field, Kentucky
Current Conditions -  °F | °C
As of 11:56 AM on Thursday 23 Oct 2014 (Local Time) from KSDF Reporting Station
Scattered Clouds Scattered Clouds  
Wind Chill: 55°   Ceiling: Unl
Heat Index: 55°   Visibility: 10mi
Dew Point: 42°   Wind: 7mph
Humidity: 62%   Direction: 170°S
Pressure: 30.24"   Gusts: 16mph
Location:  38.18°N, 85.73°W
Report Text: KSDF 231556Z 17006G14KT 10SM SCT250 13/06 A3024 RMK AO2 SLP239 T01280056
Loading
Personal Weather Stations






























Interactive Weather Map
Tropical Storm Tracking
New forecast layout! Learn more

10-Day Weather Forecast

Advertisements
Track Severe Weather on mobile